Time;durP1;ratioP1;P1;durP2;ratioP2;P2;SDS_P1;SDS_P2;PMS_P1;PMS_P2;Temp;Humidity;BMP_temperature;BMP_pressure;BME280_temperature;BME280_humidity;BME280_pressure;Samples;Min_cycle;Max_cycle;Signal;HPM_P1;HPM_P2
2022/10/07 00:00:14;;;;;;;10.70;5.80;;;;;;;4.87;100.00;100980.66;100582;1342;24359;-35
2022/10/07 00:02:39;;;;;;;5.70;4.10;;;;;;;4.79;100.00;100980.61;100865;1334;23010;-32
2022/10/07 00:05:06;;;;;;;7.70;4.60;;;;;;;4.78;100.00;100984.42;100584;1339;24379;-37
2022/10/07 00:07:31;;;;;;;11.90;3.90;;;;;;;4.79;100.00;100981.83;100823;1331;22794;-35
2022/10/07 00:09:57;;;;;;;7.70;5.60;;;;;;;4.77;100.00;100984.65;100686;1331;23054;-35
2022/10/07 00:12:22;;;;;;;9.60;6.30;;;;;;;4.78;100.00;100983.16;100792;1339;24347;-39
2022/10/07 00:14:48;;;;;;;10.10;7.20;;;;;;;4.80;100.00;100983.73;100746;1330;24378;-32
2022/10/07 00:17:13;;;;;;;14.90;6.70;;;;;;;4.73;100.00;100980.71;100800;1339;24481;-36
2022/10/07 00:19:39;;;;;;;12.00;6.20;;;;;;;4.65;100.00;100982.39;100732;1339;23352;-33
2022/10/07 00:22:04;;;;;;;9.90;6.00;;;;;;;4.55;100.00;100979.65;100815;1339;23017;-35
2022/10/07 00:24:30;;;;;;;9.30;4.70;;;;;;;4.47;100.00;100974.92;100720;1339;24379;-33
2022/10/07 00:33:19;;;;;;;;;;;;;;;4.35;100.00;100967.11;100290;1345;545052;-34
2022/10/07 00:35:46;;;;;;;22.00;9.80;;;;;;;4.31;100.00;100970.63;100412;1343;23365;-41
2022/10/07 00:38:11;;;;;;;21.00;11.70;;;;;;;4.27;100.00;100967.91;100371;1337;22754;-34
2022/10/07 00:40:37;;;;;;;20.40;10.60;;;;;;;4.21;100.00;100961.65;100288;1345;23096;-34
2022/10/07 00:43:18;;;;;;;23.50;12.60;;;;;;;4.14;100.00;100964.17;100395;1345;22752;-31
2022/10/07 00:45:43;;;;;;;10.40;5.40;;;;;;;4.05;100.00;100963.06;100442;1343;22754;-32
2022/10/07 00:48:09;;;;;;;14.80;7.70;;;;;;;4.03;100.00;100963.02;100268;1342;392637;-36
2022/10/07 00:50:34;;;;;;;17.90;9.00;;;;;;;3.99;100.00;100962.14;100486;1340;23252;-35
2022/10/07 00:53:00;;;;;;;10.80;7.80;;;;;;;3.93;100.00;100968.05;100467;1336;22761;-32
2022/10/07 00:55:26;;;;;;;12.40;7.20;;;;;;;3.91;100.00;100963.42;100527;1348;23166;-32
2022/10/07 00:57:52;;;;;;;12.30;7.80;;;;;;;3.89;100.00;100960.71;100519;1340;22839;-33
2022/10/07 01:00:20;;;;;;;18.90;9.70;;;;;;;3.86;100.00;100962.00;100412;1344;22819;-35
2022/10/07 01:02:46;;;;;;;15.30;8.30;;;;;;;3.80;100.00;100955.92;100479;1346;24309;-36
2022/10/07 01:05:13;;;;;;;24.70;9.40;;;;;;;3.77;100.00;100952.98;100573;1334;23103;-32
2022/10/07 01:07:38;;;;;;;17.30;9.40;;;;;;;3.72;100.00;100954.38;100528;1343;24430;-35
2022/10/07 01:10:04;;;;;;;12.30;7.60;;;;;;;3.69;100.00;100953.34;100761;1334;24360;-33
2022/10/07 01:12:39;;;;;;;11.20;6.80;;;;;;;3.66;100.00;100953.92;100767;1343;23086;-36
2022/10/07 01:15:12;;;;;;;19.00;7.80;;;;;;;3.59;100.00;100950.36;100768;1334;24481;-35
2022/10/07 01:17:46;;;;;;;16.90;7.80;;;;;;;3.55;100.00;100949.61;100856;1331;24279;-35
2022/10/07 01:20:19;;;;;;;19.50;9.50;;;;;;;3.52;100.00;100947.86;100863;1333;22877;-35
2022/10/07 01:22:52;;;;;;;24.00;10.30;;;;;;;3.50;100.00;100944.09;100757;1343;25333;-36
2022/10/07 01:25:25;;;;;;;26.60;6.60;;;;;;;3.48;100.00;100940.40;100770;1344;22885;-35
2022/10/07 01:27:53;;;;;;;9.90;5.80;;;;;;;3.48;100.00;100938.29;100821;1345;24407;-32
2022/10/07 01:30:19;;;;;;;12.80;6.30;;;;;;;3.48;100.00;100934.34;100849;1337;24319;-35
2022/10/07 01:32:52;;;;;;;19.30;8.00;;;;;;;3.49;100.00;100933.61;100750;1338;24469;-32
2022/10/07 01:35:23;;;;;;;16.40;7.40;;;;;;;3.46;100.00;100933.25;100723;1343;22487;-32
2022/10/07 01:37:51;;;;;;;14.80;7.80;;;;;;;3.46;100.00;100935.05;100843;1334;23103;-35
2022/10/07 01:40:20;;;;;;;16.10;8.20;;;;;;;3.42;100.00;100931.81;100834;1344;24491;-32
2022/10/07 01:42:45;;;;;;;23.50;8.40;;;;;;;3.40;100.00;100932.52;100797;1344;23062;-34
2022/10/07 01:45:13;;;;;;;15.70;7.90;;;;;;;3.40;100.00;100930.94;100766;1331;24286;-35
2022/10/07 01:47:38;;;;;;;16.60;6.30;;;;;;;3.37;100.00;100931.43;100819;1345;25303;-32
2022/10/07 01:50:11;;;;;;;11.40;6.70;;;;;;;3.36;100.00;100926.60;100781;1339;22739;-36
2022/10/07 01:52:44;;;;;;;11.80;8.40;;;;;;;3.38;100.00;100926.09;100752;1339;25310;-35
2022/10/07 01:55:21;;;;;;;8.20;4.60;;;;;;;3.40;100.00;100932.12;100769;1343;22511;-33
2022/10/07 01:57:54;;;;;;;9.60;5.90;;;;;;;3.45;100.00;100938.88;100779;1330;23222;-33
2022/10/07 02:00:19;;;;;;;6.90;4.70;;;;;;;3.47;100.00;100937.50;100768;1345;22504;-35
2022/10/07 02:02:52;;;;;;;1.60;1.50;;;;;;;3.46;100.00;100932.90;100742;1331;22850;-35
2022/10/07 02:05:25;;;;;;;10.50;5.60;;;;;;;3.47;100.00;100934.27;100739;1338;23328;-32
2022/10/07 02:08:01;;;;;;;9.80;6.70;;;;;;;3.42;100.00;100931.11;100769;1345;22673;-35
2022/10/07 02:10:31;;;;;;;12.20;8.00;;;;;;;3.35;100.00;100927.38;100754;1340;23211;-35
2022/10/07 02:13:02;;;;;;;8.00;6.30;;;;;;;3.33;100.00;100923.94;100824;1343;22991;-35
2022/10/07 02:15:32;;;;;;;11.90;7.80;;;;;;;3.34;100.00;100929.01;100752;1328;22826;-33
2022/10/07 02:18:01;;;;;;;15.40;9.60;;;;;;;3.31;100.00;100925.70;100825;1339;22757;-31
2022/10/07 02:20:28;;;;;;;17.10;7.80;;;;;;;3.27;100.00;100920.70;100850;1339;23885;-38
2022/10/07 02:22:54;;;;;;;11.50;7.70;;;;;;;3.21;100.00;100915.08;100768;1339;24434;-31
2022/10/07 02:25:20;;;;;;;11.00;7.70;;;;;;;3.20;100.00;100914.25;100757;1339;22748;-32
2022/10/07 02:27:46;;;;;;;16.60;8.10;;;;;;;3.20;100.00;100915.17;100766;1340;23205;-32
2022/10/07 02:30:13;;;;;;;11.10;7.70;;;;;;;3.19;100.00;100912.63;100796;1339;24374;-35
2022/10/07 02:32:41;;;;;;;18.30;10.50;;;;;;;3.14;100.00;100908.73;100740;1340;22869;-35
2022/10/07 02:35:13;;;;;;;15.90;9.50;;;;;;;3.13;100.00;100909.50;100749;1338;23236;-32
2022/10/07 02:37:38;;;;;;;13.90;9.40;;;;;;;3.18;100.00;100907.91;100782;1341;25225;-33
2022/10/07 02:40:06;;;;;;;14.50;9.10;;;;;;;3.24;100.00;100905.15;100774;1331;22893;-35
2022/10/07 02:42:38;;;;;;;14.60;11.00;;;;;;;3.22;100.00;100904.36;100739;1331;24355;-33
2022/10/07 02:45:16;;;;;;;20.90;12.00;;;;;;;3.19;100.00;100902.36;100852;1329;22894;-34
2022/10/07 02:47:48;;;;;;;16.40;11.60;;;;;;;3.15;100.00;100900.65;100943;1339;25312;-38
2022/10/07 02:50:15;;;;;;;24.60;11.00;;;;;;;3.13;100.00;100899.59;100757;1331;23420;-32
2022/10/07 02:52:40;;;;;;;24.90;11.10;;;;;;;3.10;100.00;100895.19;100771;1339;22753;-35
2022/10/07 02:55:07;;;;;;;27.80;9.70;;;;;;;3.10;100.00;100898.91;100782;1334;22741;-35
2022/10/07 02:57:35;;;;;;;14.80;8.50;;;;;;;3.07;100.00;100895.42;100764;1339;24488;-33
2022/10/07 03:00:00;;;;;;;11.40;7.30;;;;;;;3.05;100.00;100893.31;100744;1339;22560;-32
2022/10/07 03:02:31;;;;;;;13.20;9.00;;;;;;;3.03;100.00;100894.61;100726;1343;22757;-32
2022/10/07 03:08:29;;;;;;;13.30;9.80;;;;;;;3.00;100.00;100888.49;100216;1344;545721;-36
2022/10/07 03:10:54;;;;;;;14.10;8.80;;;;;;;2.95;100.00;100890.06;100350;1345;23096;-32
2022/10/07 03:13:21;;;;;;;12.40;9.50;;;;;;;2.92;100.00;100886.44;100318;1335;22895;-32
2022/10/07 03:15:46;;;;;;;18.50;11.20;;;;;;;2.90;100.00;100881.63;100373;1346;24493;-33
2022/10/07 03:18:25;;;;;;;15.80;10.00;;;;;;;2.88;100.00;100881.73;100364;1347;22711;-34
2022/10/07 03:20:52;;;;;;;16.00;8.60;;;;;;;2.88;100.00;100883.02;100338;1348;22894;-34
2022/10/07 03:23:18;;;;;;;17.70;11.10;;;;;;;2.85;100.00;100879.16;100180;1344;330288;-32
2022/10/07 03:25:50;;;;;;;26.10;16.10;;;;;;;2.84;100.00;100884.73;100366;1336;24840;-35
2022/10/07 03:28:17;;;;;;;8.90;7.00;;;;;;;2.83;100.00;100881.46;100436;1343;25240;-36
2022/10/07 03:30:42;;;;;;;26.00;12.30;;;;;;;2.85;100.00;100875.30;100416;1337;26064;-36
2022/10/07 03:33:08;;;;;;;15.00;10.10;;;;;;;2.87;100.00;100879.34;100403;1337;22889;-33
2022/10/07 03:35:34;;;;;;;22.20;11.70;;;;;;;2.89;100.00;100878.52;100448;1336;24477;-33
2022/10/07 03:37:59;;;;;;;12.10;8.80;;;;;;;2.89;100.00;100879.75;100463;1337;24578;-36
2022/10/07 03:40:25;;;;;;;25.40;12.60;;;;;;;2.90;100.00;100874.20;100379;1344;23070;-36
2022/10/07 03:42:50;;;;;;;24.20;11.80;;;;;;;2.90;100.00;100876.80;100359;1329;23250;-37
2022/10/07 03:45:16;;;;;;;14.10;8.10;;;;;;;2.87;100.00;100876.50;100410;1328;24814;-34
2022/10/07 03:47:42;;;;;;;16.30;10.30;;;;;;;2.85;100.00;100876.65;100435;1342;23204;-35
2022/10/07 03:50:08;;;;;;;14.00;9.80;;;;;;;2.80;100.00;100872.59;100445;1344;23246;-33
2022/10/07 03:52:35;;;;;;;16.90;9.00;;;;;;;2.73;100.00;100863.38;100481;1343;24251;-33
2022/10/07 03:55:02;;;;;;;14.50;9.10;;;;;;;2.68;100.00;100863.54;100380;1343;23205;-34
2022/10/07 03:59:57;;;;;;;23.90;13.60;;;;;;;2.64;100.00;100861.52;100364;1339;24395;-36
2022/10/07 04:02:23;;;;;;;27.90;12.30;;;;;;;2.66;100.00;100857.88;100441;1344;24409;-33
2022/10/07 04:04:51;;;;;;;13.90;8.30;;;;;;;2.68;100.00;100857.52;100536;1344;22504;-33
2022/10/07 04:07:19;;;;;;;26.50;10.80;;;;;;;2.72;100.00;100855.70;100314;1344;23080;-33
2022/10/07 04:09:45;;;;;;;16.60;9.00;;;;;;;2.73;100.00;100852.09;100544;1342;23179;-38
2022/10/07 04:12:11;;;;;;;14.20;8.20;;;;;;;2.70;100.00;100848.90;100485;1330;24448;-32
2022/10/07 04:14:37;;;;;;;16.50;9.10;;;;;;;2.65;100.00;100848.56;100440;1343;24325;-34
2022/10/07 04:17:03;;;;;;;22.10;12.50;;;;;;;2.62;100.00;100847.02;100393;1342;24379;-35
2022/10/07 04:19:29;;;;;;;23.80;10.60;;;;;;;2.58;100.00;100846.22;100429;1344;24453;-34
2022/10/07 04:21:55;;;;;;;30.30;12.00;;;;;;;2.59;100.00;100846.16;100411;1336;23243;-33
2022/10/07 04:24:21;;;;;;;25.10;14.10;;;;;;;2.57;100.00;100841.90;100412;1336;24373;-33
2022/10/07 04:26:47;;;;;;;30.20;17.00;;;;;;;2.57;100.00;100836.58;100477;1336;24386;-34
2022/10/07 04:29:13;;;;;;;19.40;10.70;;;;;;;2.60;100.00;100831.79;100436;1344;27904;-36
2022/10/07 04:31:39;;;;;;;20.80;11.90;;;;;;;2.64;100.00;100832.21;100455;1330;22595;-38
2022/10/07 04:34:05;;;;;;;24.20;13.10;;;;;;;2.66;100.00;100832.08;100481;1343;24386;-34
2022/10/07 04:36:31;;;;;;;25.80;13.10;;;;;;;2.66;100.00;100829.40;100446;1339;23220;-32
2022/10/07 04:38:57;;;;;;;30.30;18.60;;;;;;;2.66;100.00;100826.36;100430;1344;23234;-33
2022/10/07 04:41:22;;;;;;;25.50;15.40;;;;;;;2.64;100.00;100824.27;100352;1344;23252;-34
2022/10/07 04:43:50;;;;;;;15.40;8.80;;;;;;;2.61;100.00;100820.73;100295;1344;24487;-32
2022/10/07 04:46:15;;;;;;;16.10;10.10;;;;;;;2.60;100.00;100820.83;100427;1336;24860;-33
2022/10/07 04:48:42;;;;;;;21.10;12.20;;;;;;;2.55;100.00;100816.04;100460;1344;23224;-33
2022/10/07 04:51:08;;;;;;;16.90;8.00;;;;;;;2.51;100.00;100813.17;100468;1336;22495;-37
2022/10/07 04:53:35;;;;;;;13.70;8.80;;;;;;;2.46;100.00;100818.79;100489;1342;22752;-36
2022/10/07 04:56:00;;;;;;;13.70;9.20;;;;;;;2.45;100.00;100815.54;100474;1344;23070;-32
2022/10/07 04:58:26;;;;;;;24.40;11.60;;;;;;;2.44;100.00;100814.56;100395;1341;23106;-37
2022/10/07 05:00:54;;;;;;;14.90;9.20;;;;;;;2.43;100.00;100810.02;100452;1344;23895;-36
2022/10/07 05:03:21;;;;;;;11.20;8.50;;;;;;;2.43;100.00;100814.95;100357;1344;24313;-32
2022/10/07 05:05:48;;;;;;;32.30;13.80;;;;;;;2.44;100.00;100814.70;100333;1339;22500;-33
2022/10/07 05:08:15;;;;;;;21.70;10.10;;;;;;;2.46;100.00;100820.40;100377;1336;24310;-33
2022/10/07 05:10:40;;;;;;;9.70;5.90;;;;;;;2.48;100.00;100822.21;100397;1339;23125;-32
2022/10/07 05:13:11;;;;;;;9.00;5.10;;;;;;;2.55;100.00;100824.18;100455;1342;23226;-33
2022/10/07 05:15:37;;;;;;;15.90;8.10;;;;;;;2.61;100.00;100828.70;100403;1344;23127;-38
2022/10/07 05:18:05;;;;;;;16.70;10.30;;;;;;;2.62;100.00;100832.36;100500;1344;22756;-36
2022/10/07 05:20:31;;;;;;;22.80;12.90;;;;;;;2.62;100.00;100830.92;100485;1344;22510;-33
2022/10/07 05:22:57;;;;;;;5.30;3.70;;;;;;;2.70;100.00;100831.27;100455;1344;22754;-33
2022/10/07 05:25:23;;;;;;;23.50;15.70;;;;;;;2.78;100.00;100828.52;100441;1338;24268;-36
2022/10/07 05:27:50;;;;;;;30.30;16.00;;;;;;;2.85;100.00;100832.11;100330;1342;25373;-33
2022/10/07 05:30:18;;;;;;;38.20;17.40;;;;;;;2.93;100.00;100832.60;100327;1343;22938;-31
2022/10/07 05:32:43;;;;;;;19.10;10.60;;;;;;;3.01;100.00;100832.89;100281;1343;22954;-34
2022/10/07 05:35:09;;;;;;;20.90;11.30;;;;;;;3.06;100.00;100834.77;100390;1320;22758;-35
2022/10/07 05:37:35;;;;;;;35.50;17.10;;;;;;;3.16;100.00;100835.48;100367;1344;23212;-33
2022/10/07 05:40:00;;;;;;;52.10;24.60;;;;;;;3.21;100.00;100837.73;100328;1345;23055;-36
2022/10/07 05:42:26;;;;;;;41.60;24.00;;;;;;;3.23;100.00;100835.81;100511;1343;22754;-33
2022/10/07 05:44:51;;;;;;;30.50;13.90;;;;;;;3.30;100.00;100838.87;100428;1342;22524;-35
2022/10/07 05:47:17;;;;;;;25.50;16.80;;;;;;;3.41;100.00;100845.09;100398;1339;22894;-35
2022/10/07 05:49:43;;;;;;;18.80;12.80;;;;;;;3.51;100.00;100844.35;100354;1335;22879;-32
2022/10/07 05:52:09;;;;;;;44.70;18.00;;;;;;;3.65;100.00;100853.77;100456;1336;24494;-35
2022/10/07 05:54:34;;;;;;;27.50;14.30;;;;;;;3.80;100.00;100854.39;100358;1336;22750;-32
2022/10/07 05:57:00;;;;;;;39.50;17.30;;;;;;;4.03;100.00;100865.77;100373;1343;23057;-36
2022/10/07 05:59:25;;;;;;;32.50;18.50;;;;;;;4.18;100.00;100872.86;100301;1339;23205;-37
2022/10/07 06:01:56;;;;;;;37.60;20.00;;;;;;;4.27;100.00;100875.73;100386;1344;22614;-34
2022/10/07 06:04:22;;;;;;;44.20;26.40;;;;;;;4.34;100.00;100879.30;100405;1344;22721;-40
2022/10/07 06:06:47;;;;;;;41.60;22.10;;;;;;;4.37;100.00;100874.04;100482;1344;22510;-37
2022/10/07 06:14:11;;;;;;;33.50;19.50;;;;;;;4.65;100.00;100860.18;100600;1341;25380;-36
2022/10/07 06:16:37;;;;;;;34.60;22.00;;;;;;;4.78;100.00;100854.87;100560;1333;22740;-35
2022/10/07 06:19:02;;;;;;;27.00;14.40;;;;;;;4.94;100.00;100856.06;100537;1341;22749;-36
2022/10/07 06:21:28;;;;;;;20.90;15.30;;;;;;;5.05;100.00;100850.38;100488;1334;22848;-34
2022/10/07 06:23:54;;;;;;;21.50;12.70;;;;;;;5.14;100.00;100848.51;100515;1333;24485;-36
2022/10/07 06:26:20;;;;;;;14.80;11.40;;;;;;;5.21;100.00;100848.54;100564;1336;22751;-37
2022/10/07 06:28:46;;;;;;;12.90;10.60;;;;;;;5.25;100.00;100850.66;100506;1333;22857;-36
2022/10/07 06:31:14;;;;;;;17.30;12.00;;;;;;;5.33;100.00;100849.59;100538;1334;22520;-34
2022/10/07 06:33:40;;;;;;;18.90;11.20;;;;;;;5.42;100.00;100848.89;100560;1341;23125;-35
2022/10/07 06:36:07;;;;;;;14.90;7.40;;;;;;;5.51;100.00;100852.08;100526;1334;23276;-34
2022/10/07 06:38:32;;;;;;;13.20;9.90;;;;;;;5.60;100.00;100852.39;100578;1341;22505;-37
2022/10/07 06:41:00;;;;;;;21.60;9.60;;;;;;;5.71;100.00;100853.78;100483;1336;22799;-33
2022/10/07 06:43:26;;;;;;;22.80;12.40;;;;;;;5.81;100.00;100854.14;100614;1326;22766;-34
2022/10/07 06:45:52;;;;;;;22.30;13.80;;;;;;;5.94;100.00;100852.70;100527;1333;24303;-33
2022/10/07 06:48:18;;;;;;;22.50;13.30;;;;;;;6.05;100.00;100853.89;100501;1335;22867;-33
2022/10/07 06:50:49;;;;;;;14.30;10.90;;;;;;;6.20;100.00;100857.97;100539;1339;23112;-36
2022/10/07 06:53:15;;;;;;;20.90;15.30;;;;;;;6.36;100.00;100861.40;100497;1337;22884;-36
2022/10/07 06:55:40;;;;;;;;;;;;;;;6.54;100.00;100864.77;100495;1341;22484;-36
2022/10/07 06:58:06;;;;;;;19.10;12.50;;;;;;;6.79;100.00;100863.98;100550;1335;24479;-34
2022/10/07 07:00:31;;;;;;;16.50;14.00;;;;;;;7.08;100.00;100865.64;100581;1341;22568;-37
2022/10/07 07:03:00;;;;;;;26.60;15.60;;;;;;;7.38;100.00;100870.08;100590;1341;23339;-35
2022/10/07 07:05:30;;;;;;;14.80;11.00;;;;;;;7.71;100.00;100870.83;100641;1333;22755;-37
2022/10/07 07:07:56;;;;;;;25.70;15.70;;;;;;;8.04;100.00;100869.30;100526;1341;22876;-33
2022/10/07 07:10:21;;;;;;;31.30;16.80;;;;;;;8.42;100.00;100869.52;100512;1335;24304;-34
2022/10/07 07:12:47;;;;;;;12.30;8.40;;;;;;;8.79;100.00;100873.39;100542;1333;22757;-37
2022/10/07 07:15:13;;;;;;;17.80;11.20;;;;;;;9.14;100.00;100874.86;100551;1341;23210;-37
2022/10/07 07:17:38;;;;;;;7.30;6.10;;;;;;;9.47;100.00;100870.30;100559;1333;22822;-35
2022/10/07 07:20:04;;;;;;;6.40;5.20;;;;;;;9.86;100.00;100868.85;100631;1341;24382;-37
2022/10/07 07:22:30;;;;;;;15.10;6.80;;;;;;;10.19;100.00;100876.44;100469;1341;22748;-35
2022/10/07 07:24:56;;;;;;;14.10;6.50;;;;;;;10.48;100.00;100871.11;100621;1336;22515;-37
2022/10/07 07:27:21;;;;;;;14.60;4.80;;;;;;;10.78;100.00;100842.55;100544;1342;22504;-37
2022/10/07 07:29:47;;;;;;;21.60;5.00;;;;;;;11.12;100.00;100833.95;100539;1336;23093;-37
2022/10/07 07:32:12;;;;;;;9.10;3.10;;;;;;;11.46;100.00;100825.56;100617;1336;23067;-34
2022/10/07 07:34:38;;;;;;;6.30;3.90;;;;;;;11.73;100.00;100825.13;100560;1341;22989;-35
2022/10/07 07:37:03;;;;;;;8.20;2.90;;;;;;;11.91;100.00;100803.20;100597;1334;23236;-35
2022/10/07 07:39:29;;;;;;;8.80;4.00;;;;;;;12.13;100.00;100765.58;100638;1335;23093;-34
2022/10/07 07:41:55;;;;;;;10.70;3.70;;;;;;;12.41;100.00;100744.66;100456;1345;22894;-35
2022/10/07 07:44:20;;;;;;;11.80;3.00;;;;;;;12.69;100.00;100733.15;100495;1339;22519;-35
2022/10/07 07:46:49;;;;;;;5.60;3.20;;;;;;;12.94;100.00;100699.13;100495;1333;22902;-37
2022/10/07 07:49:15;;;;;;;3.40;2.40;;;;;;;13.26;100.00;100710.52;100561;1334;23026;-34
2022/10/07 07:51:41;;;;;;;1.90;1.40;;;;;;;13.54;100.00;100709.45;100502;1336;23106;-35
2022/10/07 07:54:08;;;;;;;13.80;3.00;;;;;;;13.78;100.00;100697.06;100571;1341;23102;-39
2022/10/07 07:56:34;;;;;;;17.20;1.30;;;;;;;13.95;100.00;100688.50;100598;1341;23103;-35
2022/10/07 07:59:00;;;;;;;3.30;1.70;;;;;;;14.09;100.00;100672.18;100613;1340;25239;-35
2022/10/07 08:01:25;;;;;;;13.40;2.40;;;;;;;14.29;100.00;100661.79;100499;1341;24752;-35
2022/10/07 08:03:52;;;;;;;2.30;1.70;;;;;;;14.50;100.00;100656.00;100533;1341;22890;-37
2022/10/07 08:06:19;;;;;;;5.40;1.40;;;;;;;14.71;100.00;100642.02;100530;1341;23110;-35
2022/10/07 08:08:45;;;;;;;7.30;2.00;;;;;;;14.90;100.00;100640.50;100528;1341;23246;-37
2022/10/07 08:11:12;;;;;;;2.90;1.50;;;;;;;15.10;100.00;100634.84;100525;1335;22762;-35
2022/10/07 08:13:40;;;;;;;3.70;1.90;;;;;;;15.24;100.00;100629.31;100642;1341;22993;-35
2022/10/07 08:16:07;;;;;;;2.60;1.50;;;;;;;15.38;100.00;100629.17;100526;1341;22507;-37
2022/10/07 08:18:32;;;;;;;19.00;2.20;;;;;;;15.60;100.00;100624.66;100474;1326;22895;-37
2022/10/07 08:20:59;;;;;;;7.80;1.80;;;;;;;15.88;98.86;100622.27;100513;1339;23120;-35
2022/10/07 08:23:25;;;;;;;2.80;1.80;;;;;;;16.08;96.49;100614.36;100543;1336;22730;-36
2022/10/07 08:25:54;;;;;;;11.60;2.60;;;;;;;16.22;92.18;100611.60;100599;1341;25305;-35
2022/10/07 08:28:19;;;;;;;4.20;1.50;;;;;;;16.42;92.98;100612.66;100543;1341;22880;-34
2022/10/07 08:30:45;;;;;;;1.20;0.70;;;;;;;16.54;88.66;100602.13;100466;1341;22755;-34
2022/10/07 08:33:11;;;;;;;5.30;1.00;;;;;;;16.65;87.58;100601.38;100562;1325;22752;-35
2022/10/07 08:35:36;;;;;;;4.60;1.30;;;;;;;16.86;87.93;100603.32;100589;1341;22861;-35
2022/10/07 08:38:02;;;;;;;23.50;8.30;;;;;;;17.05;86.15;100603.75;100631;1341;23230;-38
2022/10/07 08:40:27;;;;;;;10.90;3.30;;;;;;;17.19;86.40;100601.81;100532;1334;22887;-38
2022/10/07 08:42:53;;;;;;;3.10;1.50;;;;;;;17.34;83.54;100598.86;100529;1341;24441;-37
2022/10/07 08:45:28;;;;;;;2.60;0.60;;;;;;;17.56;84.41;100598.70;100514;1341;22845;-37
2022/10/07 08:47:53;;;;;;;4.20;1.80;;;;;;;17.81;81.68;100587.77;100597;1334;22503;-35
2022/10/07 08:50:24;;;;;;;3.30;0.90;;;;;;;17.98;79.72;100581.86;100564;1341;22749;-37
2022/10/07 08:52:55;;;;;;;3.60;0.50;;;;;;;18.03;75.02;100580.08;100570;1341;24383;-37
2022/10/07 08:55:25;;;;;;;4.60;2.00;;;;;;;18.04;71.73;100577.35;100541;1341;23093;-35
2022/10/07 08:58:03;;;;;;;1.20;0.70;;;;;;;18.11;71.37;100574.34;100577;1334;22753;-35
2022/10/07 09:00:35;;;;;;;8.60;1.40;;;;;;;18.16;73.34;100573.94;100667;1333;24322;-38
2022/10/07 09:03:09;;;;;;;6.30;1.30;;;;;;;18.25;71.81;100573.81;100584;1339;22504;-36
2022/10/07 09:05:39;;;;;;;7.20;0.80;;;;;;;18.35;71.01;100566.80;100726;1341;22890;-33
2022/10/07 09:08:13;;;;;;;4.10;0.90;;;;;;;18.31;68.03;100566.29;100642;1341;22507;-38
2022/10/07 09:10:47;;;;;;;1.80;0.80;;;;;;;18.36;68.70;100568.91;100601;1334;25330;-36
2022/10/07 09:13:19;;;;;;;1.10;0.60;;;;;;;18.42;67.47;100562.65;100630;1341;24200;-37
2022/10/07 09:15:48;;;;;;;3.80;0.80;;;;;;;18.57;67.88;100557.11;100532;1341;22507;-37
2022/10/07 09:18:21;;;;;;;1.30;1.10;;;;;;;18.74;68.06;100556.20;100498;1341;23106;-37
2022/10/07 09:20:52;;;;;;;4.70;1.10;;;;;;;19.01;68.76;100553.78;100510;1334;24765;-34
2022/10/07 09:23:20;;;;;;;3.20;2.90;;;;;;;19.20;68.07;100550.47;100580;1336;23101;-35
2022/10/07 09:25:46;;;;;;;2.60;1.80;;;;;;;19.44;66.21;100548.25;100542;1340;24378;-37
2022/10/07 09:28:12;;;;;;;2.70;1.10;;;;;;;19.69;65.78;100541.98;100572;1335;23054;-35
2022/10/07 09:30:38;;;;;;;2.90;0.80;;;;;;;19.84;64.66;100538.28;100625;1336;22516;-38
2022/10/07 09:33:04;;;;;;;2.60;0.90;;;;;;;19.89;61.82;100536.54;100539;1341;22748;-36
2022/10/07 09:35:30;;;;;;;5.40;1.10;;;;;;;20.02;61.84;100528.88;100552;1341;22748;-36
2022/10/07 09:37:58;;;;;;;1.60;0.80;;;;;;;20.41;63.67;100527.81;100643;1333;22500;-39
2022/10/07 09:41:13;;;;;;;4.60;1.20;;;;;;;20.42;60.61;100524.11;100532;1333;22566;-37
2022/10/07 09:43:22;;;;;;;2.40;0.80;;;;;;;20.67;61.12;100519.29;100518;1341;23105;-35
2022/10/07 09:45:48;;;;;;;2.30;1.10;;;;;;;20.91;60.23;100519.48;100572;1341;22508;-38
2022/10/07 09:48:19;;;;;;;2.90;1.20;;;;;;;21.01;58.79;100513.65;100566;1341;23106;-34
2022/10/07 09:50:46;;;;;;;2.10;1.00;;;;;;;21.17;58.27;100509.77;100598;1341;24463;-34
2022/10/07 09:53:18;;;;;;;1.90;0.90;;;;;;;21.42;57.82;100508.14;100595;1340;22747;-34
2022/10/07 09:55:44;;;;;;;10.50;0.80;;;;;;;21.56;55.50;100502.30;100571;1341;22886;-34
2022/10/07 09:58:16;;;;;;;1.90;1.40;;;;;;;21.95;57.77;100498.55;100561;1333;23182;-34
2022/10/07 10:00:42;;;;;;;;;;;;;;;22.16;54.71;100498.23;100616;1341;25353;-36
2022/10/07 10:03:08;;;;;;;1.50;0.80;;;;;;;22.36;53.46;100493.34;100613;1341;22762;-36
2022/10/07 10:05:36;;;;;;;2.00;0.70;;;;;;;22.37;54.13;100491.27;100572;1340;22759;-37
2022/10/07 10:08:05;;;;;;;2.30;1.30;;;;;;;22.38;51.74;100493.71;100602;1341;25600;-36
2022/10/07 10:10:32;;;;;;;1.60;0.60;;;;;;;22.58;53.70;100490.63;100615;1341;22513;-38
2022/10/07 10:12:59;;;;;;;3.50;1.10;;;;;;;22.80;53.96;100487.64;100590;1327;23242;-35
2022/10/07 10:15:27;;;;;;;4.60;2.20;;;;;;;23.07;51.79;100485.39;100557;1332;23055;-37
2022/10/07 10:17:55;;;;;;;2.30;1.10;;;;;;;23.16;50.40;100481.50;100616;1334;22940;-36
2022/10/07 10:20:26;;;;;;;6.70;0.90;;;;;;;23.11;49.85;100482.63;100641;1341;22497;-34
2022/10/07 10:22:52;;;;;;;3.60;1.30;;;;;;;23.25;49.32;100481.52;100586;1341;22764;-34
2022/10/07 10:28:02;;;;;;;6.30;0.80;;;;;;;23.58;49.30;100475.79;100517;1341;23117;-35
2022/10/07 10:30:29;;;;;;;3.60;2.50;;;;;;;23.59;48.43;100470.21;100594;1341;23914;-37
2022/10/07 10:33:05;;;;;;;2.40;0.60;;;;;;;23.67;46.86;100469.20;100557;1334;23114;-35
2022/10/07 10:35:31;;;;;;;4.70;1.80;;;;;;;23.37;48.06;100464.28;100555;1331;22875;-43
2022/10/07 10:38:07;;;;;;;3.00;1.80;;;;;;;23.56;48.15;100458.83;100525;1340;23342;-39
2022/10/07 10:40:39;;;;;;;5.20;1.10;;;;;;;23.47;48.05;100459.76;100549;1339;22889;-38
2022/10/07 10:43:05;;;;;;;3.50;1.50;;;;;;;23.47;48.02;100453.77;100565;1334;22514;-37
2022/10/07 10:45:54;;;;;;;10.20;1.50;;;;;;;23.28;48.20;100450.79;100568;1339;23219;-35
2022/10/07 10:48:28;;;;;;;3.30;1.20;;;;;;;23.05;48.18;100447.54;100562;1341;22881;-37
2022/10/07 10:51:00;;;;;;;1.30;0.90;;;;;;;22.69;49.44;100444.53;100566;1341;22524;-34
2022/10/07 10:53:35;;;;;;;2.60;1.00;;;;;;;22.47;49.45;100436.14;100603;1329;24370;-37
2022/10/07 10:56:08;;;;;;;4.80;0.90;;;;;;;22.26;49.71;100437.13;100523;1341;23228;-37
2022/10/07 10:58:37;;;;;;;1.80;1.00;;;;;;;22.07;49.54;100432.39;100579;1341;23893;-39
2022/10/07 11:01:10;;;;;;;4.90;1.30;;;;;;;21.77;50.11;100427.42;100604;1341;22507;-35
2022/10/07 11:03:39;;;;;;;;;;;;;;;21.51;51.05;100421.85;100550;1342;23116;-38
2022/10/07 11:06:07;;;;;;;2.70;0.90;;;;;;;21.22;51.62;100412.50;100632;1334;22775;-38
2022/10/07 11:08:33;;;;;;;2.20;0.90;;;;;;;21.26;52.31;100404.23;100528;1341;23230;-38
2022/10/07 11:11:01;;;;;;;1.30;0.90;;;;;;;21.57;52.69;100401.69;100593;1340;22972;-38
2022/10/07 11:13:34;;;;;;;1.20;0.90;;;;;;;21.99;51.83;100399.09;100485;1341;25298;-38
2022/10/07 11:16:02;;;;;;;;;;;;;;;22.42;50.34;100391.27;100614;1341;24758;-36
2022/10/07 11:18:31;;;;;;;3.80;1.40;;;;;;;22.63;50.25;100392.36;100561;1336;22729;-38
2022/10/07 11:20:58;;;;;;;4.30;1.50;;;;;;;23.02;49.83;100381.84;100283;1339;440030;-37
2022/10/07 11:23:30;;;;;;;2.40;1.00;;;;;;;23.29;50.10;100376.96;100601;1333;24306;-37
2022/10/07 11:26:02;;;;;;;0.80;0.70;;;;;;;23.70;49.13;100370.94;100632;1341;22512;-36
2022/10/07 11:28:28;;;;;;;4.80;0.90;;;;;;;24.01;49.26;100363.16;100542;1341;22867;-35
2022/10/07 11:31:01;;;;;;;1.50;0.90;;;;;;;24.14;48.76;100354.71;100570;1333;22933;-33